Alleyton, Texas
Current Conditions -  °F | °C
As of 2:55 AM on Thursday 23 Oct 2014 (Local Time) from K66R Reporting Station
Clear Clear  
Wind Chill: 15°   Ceiling: Unl
Heat Index: 15°   Visibility: 10mi
Dew Point: 14°   Wind: 3mph
Humidity: 94%   Direction: 30°NNE
Pressure: 30.08"   Gusts: NA
Location:  29.71°N, 96.49°W
Report Text: K66R 230755Z AUTO 03003KT 10SM CLR 15/14 A3008 RMK AO2 T01520142
Loading
Personal Weather Stations






























Interactive Weather Map
Tropical Storm Tracking
New forecast layout! Learn more

10-Day Weather Forecast

Advertisements
Track Severe Weather on mobile